Skip Navigation LinksHome page > Weather > Current weather Skip Navigation Links

Current Weather

Chicago O'Hare Intl, Chicago

For information only: do not use for flight planning or navigation.
Latest weather
Observation time Wednesday, January 18, 2017 7:29 AM CST
Local time Wednesday, January 18, 2017 8:00 AM CST
Flight conditions Instrument Meteorological Conditions
Winds
Wind direction West (260°)
Wind speed 9 mph
Visibility 5 mi.
Present weather mist
Sky condition
Ceiling 600 ft. overcast
Cloud layer overcast 600 ft.
Temperature 34°F
Dewpoint 34°F
Altimeter 30.12 in.Hg
Derived measurements
Relative humidity 100%
Wind chill 26°F
Density altitude -1171 ft.
Remarks
Special weather observation.
METAR SPUS31 KWBC 181333 SPECI KORD 181329Z 26008KT 5SM BR OVC006 01/01 A3012

Settings

Location code

InnerDrive.Weather 4.0.6144.1 Release CLR 4.0.30319.34209
Copyright ©2015 Inner Drive Technology. All rights reserved. Portions Copyright ©1986-2015 David Braverman.

Find weather

Site navigation


Skip Navigation Links

Place info

Page info

PayPal - The safer, easier way to pay online!

Return home.

Copyright ©2017 Inner Drive Technology. Purveyors of fine, hand-crafted computer software. Page printed 2017-01-18T14:00:33 UTC.